createdAt,value
2018-04-07T00:00:20.792Z,101709.04
2018-04-07T00:00:42.853Z,101712.55
2018-04-07T00:01:04.926Z,101714.69
2018-04-07T00:01:26.986Z,101709.50
2018-04-07T00:01:49.043Z,101710.89
2018-04-07T00:02:11.104Z,101711.36
2018-04-07T00:02:33.163Z,101707.38
2018-04-07T00:02:56.000Z,101709.97
2018-04-07T00:03:18.853Z,101714.41
2018-04-07T00:03:41.040Z,101708.58
2018-04-07T00:04:03.096Z,101703.03
2018-04-07T00:04:25.223Z,101705.52
2018-04-07T00:04:48.028Z,101707.38
2018-04-07T00:05:10.850Z,101706.91
2018-04-07T00:05:32.909Z,101704.88
2018-04-07T00:05:54.976Z,101707.11
2018-04-07T00:06:17.056Z,101702.39
2018-04-07T00:06:39.111Z,101704.52
2018-04-07T00:07:01.205Z,101701.83
2018-04-07T00:07:23.410Z,101706.27
2018-04-07T00:07:45.465Z,101707.11
2018-04-07T00:08:07.539Z,101701.09
2018-04-07T00:08:29.638Z,101705.34
2018-04-07T00:08:51.680Z,101703.12
2018-04-07T00:09:13.730Z,101700.17
2018-04-07T00:09:35.800Z,101707.47
2018-04-07T00:09:57.874Z,101700.53
2018-04-07T00:10:19.939Z,101695.81
2018-04-07T00:10:42.002Z,101697.67
2018-04-07T00:11:04.082Z,101698.50
2018-04-07T00:11:26.147Z,101695.55
2018-04-07T00:11:48.448Z,101693.32
2018-04-07T00:12:10.506Z,101700.63
2018-04-07T00:12:32.599Z,101696.01
2018-04-07T00:12:54.656Z,101698.23
2018-04-07T00:13:16.716Z,101700.27
2018-04-07T00:13:38.769Z,101700.63
2018-04-07T00:14:01.651Z,101700.63
2018-04-07T00:14:24.457Z,101698.97
2018-04-07T00:14:46.521Z,101700.27
2018-04-07T00:15:09.339Z,101698.50
2018-04-07T00:15:31.409Z,101699.43
2018-04-07T00:15:54.236Z,101697.30
2018-04-07T00:16:16.310Z,101702.39
2018-04-07T00:16:38.373Z,101696.84
2018-04-07T00:17:00.453Z,101703.41
2018-04-07T00:17:22.558Z,101697.67
2018-04-07T00:17:44.781Z,101695.73
2018-04-07T00:18:06.850Z,101697.77
2018-04-07T00:18:29.764Z,101698.33
2018-04-07T00:18:51.892Z,101706.83
2018-04-07T00:19:13.970Z,101698.23
2018-04-07T00:19:36.030Z,101698.70
2018-04-07T00:19:58.094Z,101702.58
2018-04-07T00:20:20.161Z,101692.59
2018-04-07T00:20:42.245Z,101695.08
2018-04-07T00:21:04.296Z,101695.45
2018-04-07T00:21:26.361Z,101696.74
2018-04-07T00:21:48.450Z,101693.23
2018-04-07T00:22:11.327Z,101700.90
2018-04-07T00:22:33.722Z,101698.31
2018-04-07T00:22:55.813Z,101693.59
2018-04-07T00:23:17.995Z,101696.19
2018-04-07T00:23:40.061Z,101695.81
2018-04-07T00:24:02.967Z,101697.48
2018-04-07T00:24:25.060Z,101700.17
2018-04-07T00:24:47.128Z,101696.28
2018-04-07T00:25:09.181Z,101695.81
2018-04-07T00:25:31.249Z,101690.17
2018-04-07T00:25:53.399Z,101699.80
2018-04-07T00:26:16.212Z,101695.45
2018-04-07T00:26:38.265Z,101693.32
2018-04-07T00:27:00.326Z,101693.69
2018-04-07T00:27:22.385Z,101694.89
2018-04-07T00:27:45.229Z,101695.45
2018-04-07T00:28:07.294Z,101686.38
2018-04-07T00:28:29.427Z,101691.56
2018-04-07T00:28:51.504Z,101688.52
2018-04-07T00:29:13.591Z,101689.34
2018-04-07T00:29:36.424Z,101692.77
2018-04-07T00:29:59.235Z,101693.13
2018-04-07T00:30:21.283Z,101690.64
2018-04-07T00:30:44.126Z,101688.05
2018-04-07T00:31:06.186Z,101688.88
2018-04-07T00:31:28.261Z,101695.08
2018-04-07T00:31:50.327Z,101692.30
2018-04-07T00:32:12.469Z,101693.13
2018-04-07T00:32:34.535Z,101688.88
2018-04-07T00:32:56.598Z,101691.01
2018-04-07T00:33:19.425Z,101696.28
2018-04-07T00:33:41.559Z,101691.56
2018-04-07T00:34:04.388Z,101688.52
2018-04-07T00:34:26.490Z,101694.62
2018-04-07T00:34:48.566Z,101692.86
2018-04-07T00:35:10.621Z,101693.23
2018-04-07T00:35:32.682Z,101691.20
2018-04-07T00:35:55.472Z,101694.25
2018-04-07T00:36:17.566Z,101696.28
2018-04-07T00:36:39.622Z,101689.34
2018-04-07T00:37:01.687Z,101689.34
2018-04-07T00:37:23.760Z,101690.64
2018-04-07T00:37:45.812Z,101686.84
2018-04-07T00:38:07.870Z,101683.33
2018-04-07T00:38:29.925Z,101689.80
2018-04-07T00:38:52.750Z,101690.64
2018-04-07T00:39:14.801Z,101691.09
2018-04-07T00:39:36.896Z,101682.41
2018-04-07T00:39:59.718Z,101686.29
2018-04-07T00:40:21.768Z,101686.38
2018-04-07T00:40:43.854Z,101685.65
2018-04-07T00:41:05.910Z,101683.89
2018-04-07T00:41:27.964Z,101685.19
2018-04-07T00:41:50.037Z,101682.13
2018-04-07T00:42:12.109Z,101683.05
2018-04-07T00:42:34.173Z,101686.02
2018-04-07T00:42:56.237Z,101684.63
2018-04-07T00:43:18.304Z,101684.63
2018-04-07T00:43:40.353Z,101685.45
2018-04-07T00:44:02.402Z,101683.42
2018-04-07T00:44:24.469Z,101685.09
2018-04-07T00:44:46.561Z,101686.02
2018-04-07T00:45:09.353Z,101684.26
2018-04-07T00:45:31.409Z,101683.80
2018-04-07T00:45:54.242Z,101678.98
2018-04-07T00:46:17.081Z,101682.41
2018-04-07T00:46:39.912Z,101679.81
2018-04-07T00:47:02.801Z,101682.41
2018-04-07T00:47:24.860Z,101675.56
2018-04-07T00:47:47.024Z,101678.52
2018-04-07T00:48:09.077Z,101674.63
2018-04-07T00:48:31.129Z,101674.27
2018-04-07T00:48:53.975Z,101674.73
2018-04-07T00:49:16.046Z,101676.02
2018-04-07T00:49:38.168Z,101672.05
2018-04-07T00:50:00.228Z,101668.63
2018-04-07T00:50:22.291Z,101671.21
2018-04-07T00:50:44.352Z,101670.28
2018-04-07T00:51:07.189Z,101670.28
2018-04-07T00:51:30.013Z,101673.80
2018-04-07T00:51:52.918Z,101673.34
2018-04-07T00:52:14.972Z,101672.97
2018-04-07T00:52:37.788Z,101672.88
2018-04-07T00:52:59.852Z,101671.48
2018-04-07T00:53:21.918Z,101668.63
2018-04-07T00:53:43.982Z,101671.12
2018-04-07T00:54:06.062Z,101674.73
2018-04-07T00:54:28.117Z,101673.90
2018-04-07T00:54:50.176Z,101671.67
2018-04-07T00:55:12.247Z,101668.53
2018-04-07T00:55:34.305Z,101672.60
2018-04-07T00:55:56.368Z,101670.75
2018-04-07T00:56:19.235Z,101673.70
2018-04-07T00:56:41.297Z,101675.83
2018-04-07T00:57:03.354Z,101672.41
2018-04-07T00:57:25.423Z,101676.86
2018-04-07T00:57:47.471Z,101673.34
2018-04-07T00:58:10.303Z,101671.58
2018-04-07T00:58:33.140Z,101675.19
2018-04-07T00:58:55.962Z,101669.92
2018-04-07T01:43:04.501Z,101653.82
2018-04-07T01:43:26.566Z,101655.81
2018-04-07T01:43:48.627Z,101650.30
2018-04-07T01:44:10.701Z,101646.75
2018-04-07T01:44:32.833Z,101651.47
2018-04-07T01:44:55.664Z,101653.96
2018-04-07T01:45:17.729Z,101654.80
2018-04-07T01:45:39.781Z,101651.14
2018-04-07T01:46:01.832Z,101649.94
2018-04-07T01:46:24.650Z,101651.14
2018-04-07T01:46:46.707Z,101646.42
2018-04-07T01:47:08.788Z,101645.59
2018-04-07T01:47:31.613Z,101646.52
2018-04-07T01:47:53.679Z,101647.44
2018-04-07T01:48:15.736Z,101647.44
2018-04-07T01:48:37.816Z,101648.17
2018-04-07T01:48:59.865Z,101647.81
2018-04-07T01:49:21.935Z,101645.68
2018-04-07T01:49:44.012Z,101645.22
2018-04-07T01:50:06.064Z,101647.81
2018-04-07T01:50:28.128Z,101644.75
2018-04-07T01:50:50.198Z,101650.03
2018-04-07T01:51:12.257Z,101646.97
2018-04-07T01:51:34.329Z,101645.22
2018-04-07T01:51:57.153Z,101647.71
2018-04-07T01:52:19.971Z,101644.75
2018-04-07T01:52:42.015Z,101649.94
2018-04-07T01:53:04.862Z,101646.75
2018-04-07T01:53:26.917Z,101636.89
2018-04-07T01:53:48.972Z,101642.06
2018-04-07T01:54:11.787Z,101639.35
2018-04-07T01:54:33.857Z,101644.16
2018-04-07T01:54:55.952Z,101640.64
2018-04-07T01:55:18.778Z,101643.23
2018-04-07T01:55:42.614Z,101639.35
2018-04-07T01:56:04.685Z,101637.13
2018-04-07T01:56:26.741Z,101640.77
2018-04-07T01:56:49.557Z,101638.52
2018-04-07T01:57:11.621Z,101643.23
2018-04-07T01:57:34.439Z,101638.89
2018-04-07T01:57:56.490Z,101637.86
2018-04-07T01:58:18.556Z,101640.09
2018-04-07T01:58:40.623Z,101637.59
2018-04-07T01:59:03.444Z,101638.42
2018-04-07T01:59:26.262Z,101642.41
2018-04-07T01:59:48.312Z,101648.05
2018-04-07T02:00:11.226Z,101644.29
2018-04-07T02:00:33.299Z,101643.00
2018-04-07T02:00:55.355Z,101642.41
2018-04-07T02:01:17.412Z,101644.53
2018-04-07T02:01:39.470Z,101639.72
2018-04-07T02:02:01.531Z,101646.19
2018-04-07T02:02:24.347Z,101643.97
2018-04-07T02:02:46.400Z,101640.64
2018-04-07T02:03:08.465Z,101641.38
2018-04-07T02:03:30.487Z,101640.64
2018-04-07T02:03:52.536Z,101637.69
2018-04-07T02:04:15.342Z,101647.25
2018-04-07T02:04:37.388Z,101639.81
2018-04-07T02:05:00.208Z,101641.58
2018-04-07T02:05:23.165Z,101641.94
2018-04-07T02:05:45.227Z,101638.42
2018-04-07T02:06:07.275Z,101635.47
2018-04-07T02:06:29.341Z,101642.41
2018-04-07T02:06:51.386Z,101636.76
2018-04-07T02:07:13.436Z,101635.83
2018-04-07T02:07:36.256Z,101635.93
2018-04-07T02:07:58.332Z,101632.31
2018-04-07T02:08:20.376Z,101634.08
2018-04-07T02:08:42.425Z,101632.41
2018-04-07T02:09:05.240Z,101638.05
2018-04-07T02:09:27.314Z,101635.59
2018-04-07T02:09:49.372Z,101638.19
2018-04-07T02:10:11.424Z,101632.41
2018-04-07T02:10:33.531Z,101636.39
2018-04-07T02:10:56.329Z,101635.59
2018-04-07T02:11:18.377Z,101639.95
2018-04-07T02:11:41.203Z,101639.81
2018-04-07T02:12:03.255Z,101636.30
2018-04-07T02:12:25.424Z,101637.96
2018-04-07T02:12:47.487Z,101634.17
2018-04-07T02:13:09.548Z,101637.13
2018-04-07T02:13:31.622Z,101640.64
2018-04-07T02:13:53.687Z,101636.30
2018-04-07T02:14:15.717Z,101636.20
2018-04-07T02:14:37.778Z,101639.81
2018-04-07T02:14:59.836Z,101636.76
2018-04-07T02:15:21.896Z,101632.69
2018-04-07T02:15:44.752Z,101631.48
2018-04-07T02:16:06.810Z,101634.45
2018-04-07T02:16:28.904Z,101633.70
2018-04-07T02:16:50.973Z,101633.52
2018-04-07T02:17:13.811Z,101632.12
2018-04-07T02:17:36.628Z,101624.36
2018-04-07T02:17:58.669Z,101625.00
2018-04-07T02:18:21.456Z,101631.48
2018-04-07T02:18:43.508Z,101630.18
2018-04-07T02:19:06.335Z,101634.06
2018-04-07T02:19:28.403Z,101629.91
2018-04-07T02:19:50.461Z,101634.06
2018-04-07T02:20:12.542Z,101629.91
2018-04-07T02:20:34.722Z,101631.66
2018-04-07T02:20:57.585Z,101627.22
2018-04-07T02:21:19.639Z,101631.57
2018-04-07T02:21:41.703Z,101632.59
2018-04-07T02:22:04.527Z,101631.76
2018-04-07T02:22:27.346Z,101632.69
2018-04-07T02:22:49.406Z,101633.52
2018-04-07T02:23:11.491Z,101631.30
2018-04-07T02:23:34.323Z,101635.73
2018-04-07T02:23:56.371Z,101637.86
2018-04-07T02:24:18.420Z,101636.02
2018-04-07T02:24:40.464Z,101635.55
2018-04-07T02:25:02.523Z,101634.72
2018-04-07T02:25:24.661Z,101633.52
2018-04-07T02:25:46.716Z,101634.34
2018-04-07T02:26:08.793Z,101632.03
2018-04-07T02:26:30.911Z,101633.05
2018-04-07T02:26:52.957Z,101634.72
2018-04-07T02:27:14.994Z,101633.05
2018-04-07T02:27:37.057Z,101632.59
2018-04-07T02:27:59.126Z,101632.96
2018-04-07T02:28:21.207Z,101630.66
2018-04-07T02:28:43.264Z,101633.24
2018-04-07T02:29:05.318Z,101627.59
2018-04-07T02:29:27.476Z,101622.05
2018-04-07T02:29:49.536Z,101623.16
2018-04-07T02:30:12.362Z,101623.25
2018-04-07T02:30:35.183Z,101622.52
2018-04-07T02:30:57.312Z,101617.61
2018-04-07T02:31:20.169Z,101614.09
2018-04-07T02:31:42.243Z,101617.70
2018-04-07T02:32:04.288Z,101614.92
2018-04-07T02:32:27.114Z,101616.69
2018-04-07T02:32:49.165Z,101611.05
2018-04-07T02:33:11.242Z,101608.45
2018-04-07T02:33:33.331Z,101607.16
2018-04-07T02:33:55.385Z,101611.13
2018-04-07T02:34:18.213Z,101611.97
2018-04-07T02:34:40.267Z,101613.63
2018-04-07T02:35:02.335Z,101609.66
2018-04-07T02:35:24.389Z,101602.81
2018-04-07T02:35:47.216Z,101606.69
2018-04-07T02:36:10.039Z,101606.33
2018-04-07T02:36:32.120Z,101605.77
2018-04-07T02:36:54.201Z,101608.36
2018-04-07T02:37:16.265Z,101609.75
2018-04-07T02:37:38.353Z,101611.50
2018-04-07T02:38:00.417Z,101604.20
2018-04-07T02:38:22.488Z,101605.40
2018-04-07T02:38:44.547Z,101607.43
2018-04-07T02:39:06.658Z,101603.64
2018-04-07T02:39:28.733Z,101604.94
2018-04-07T02:39:50.796Z,101608.08
2018-04-07T02:40:12.877Z,101605.40
2018-04-07T02:40:34.953Z,101605.12
2018-04-07T02:40:57.064Z,101602.53
2018-04-07T02:41:19.133Z,101606.05
2018-04-07T02:41:41.210Z,101605.12
2018-04-07T02:42:04.024Z,101600.31
2018-04-07T02:42:26.073Z,101601.14
2018-04-07T02:42:48.896Z,101595.87
2018-04-07T02:43:11.751Z,101595.41
2018-04-07T02:43:33.830Z,101600.13
2018-04-07T02:43:55.885Z,101593.65
2018-04-07T02:44:17.949Z,101590.23
2018-04-07T02:44:40.036Z,101595.41
2018-04-07T02:45:02.096Z,101592.82
2018-04-07T02:45:24.148Z,101588.10
2018-04-07T02:45:46.967Z,101589.49
2018-04-07T02:46:09.813Z,101591.98
2018-04-07T02:46:32.647Z,101587.73
2018-04-07T02:46:55.470Z,101588.56
2018-04-07T02:47:17.529Z,101588.20
2018-04-07T02:47:39.600Z,101588.66
2018-04-07T02:48:01.671Z,101582.19
2018-04-07T02:48:23.737Z,101577.75
2018-04-07T02:48:45.792Z,101586.53
2018-04-07T02:49:07.922Z,101585.52
2018-04-07T02:49:29.989Z,101585.23
2018-04-07T02:49:52.046Z,101584.41
2018-04-07T02:50:14.107Z,101581.72
2018-04-07T02:50:36.155Z,101586.53
2018-04-07T02:50:58.981Z,101586.53
2018-04-07T02:51:21.037Z,101580.89
2018-04-07T02:51:43.106Z,101581.27
2018-04-07T02:52:05.194Z,101578.11
2018-04-07T02:52:27.244Z,101573.77
2018-04-07T02:52:49.307Z,101578.02
2018-04-07T02:53:11.447Z,101580.70
2018-04-07T02:53:33.504Z,101576.08
2018-04-07T02:53:55.562Z,101579.50
2018-04-07T02:54:17.630Z,101577.01
2018-04-07T02:54:39.684Z,101576.08
2018-04-07T02:55:01.733Z,101581.81
2018-04-07T02:55:23.798Z,101578.67
2018-04-07T02:55:46.632Z,101578.20
2018-04-07T02:56:09.476Z,101582.55
2018-04-07T02:56:31.546Z,101582.92
2018-04-07T02:56:53.612Z,101582.83
2018-04-07T02:57:15.698Z,101586.34
2018-04-07T02:57:37.763Z,101583.76
2018-04-07T02:57:59.824Z,101584.22
2018-04-07T02:58:21.880Z,101590.33
2018-04-07T02:58:44.721Z,101585.70
2018-04-07T02:59:07.550Z,101586.91
2018-04-07T02:59:30.377Z,101587.83
2018-04-07T02:59:53.315Z,101585.61
2018-04-07T03:00:16.160Z,101589.49
2018-04-07T03:00:39.009Z,101591.62
2018-04-07T03:01:01.087Z,101589.13
2018-04-07T03:01:23.145Z,101588.30
2018-04-07T03:01:45.198Z,101593.01
2018-04-07T03:02:07.254Z,101593.01
2018-04-07T03:02:30.101Z,101590.33
2018-04-07T03:02:52.166Z,101587.27
2018-04-07T03:03:14.224Z,101584.31
2018-04-07T03:03:37.042Z,101583.84
2018-04-07T03:03:59.106Z,101584.78
2018-04-07T03:04:21.163Z,101589.49
2018-04-07T03:04:43.222Z,101580.70
2018-04-07T03:05:06.049Z,101586.44
2018-04-07T03:05:28.871Z,101589.03
2018-04-07T03:05:50.926Z,101580.24
2018-04-07T03:06:12.978Z,101580.80
2018-04-07T03:06:35.138Z,101583.30
2018-04-07T03:06:57.965Z,101577.65
2018-04-07T03:07:20.024Z,101579.88
2018-04-07T03:07:42.114Z,101580.70
2018-04-07T03:08:04.989Z,101582.00
2018-04-07T03:08:27.036Z,101577.65
2018-04-07T03:08:49.096Z,101581.27
2018-04-07T03:09:11.165Z,101579.88
2018-04-07T03:09:33.226Z,101580.80
2018-04-07T03:09:55.290Z,101579.97
2018-04-07T03:10:17.426Z,101580.33
2018-04-07T03:10:39.502Z,101575.06
2018-04-07T03:11:01.574Z,101577.28
2018-04-07T03:11:23.745Z,101574.41
2018-04-07T03:11:45.810Z,101571.83
2018-04-07T03:12:07.864Z,101570.90
2018-04-07T03:12:29.919Z,101571.17
2018-04-07T03:12:51.970Z,101570.72
2018-04-07T03:13:14.802Z,101568.03
2018-04-07T03:13:37.632Z,101569.33
2018-04-07T03:14:00.452Z,101569.70
2018-04-07T03:14:22.522Z,101577.28
2018-04-07T03:14:44.573Z,101570.90
2018-04-07T03:15:06.635Z,101575.16
2018-04-07T03:15:29.511Z,101571.64
2018-04-07T03:15:51.576Z,101577.19
2018-04-07T03:16:13.635Z,101566.83
2018-04-07T03:16:35.707Z,101569.88
2018-04-07T03:16:57.776Z,101569.52
2018-04-07T03:17:19.846Z,101578.58
2018-04-07T03:17:42.674Z,101571.27
2018-04-07T03:18:04.753Z,101573.39
2018-04-07T03:18:26.801Z,101579.04
2018-04-07T03:18:48.865Z,101572.01
2018-04-07T03:19:10.971Z,101577.47
2018-04-07T03:19:33.033Z,101571.36
2018-04-07T03:19:55.106Z,101577.84
2018-04-07T03:20:17.357Z,101578.11
2018-04-07T03:20:39.430Z,101579.97
2018-04-07T03:21:02.258Z,101576.81
2018-04-07T03:21:24.313Z,101576.81
2018-04-07T03:21:46.388Z,101571.27
2018-04-07T03:22:08.443Z,101573.86
2018-04-07T03:22:30.511Z,101569.97
2018-04-07T03:22:52.570Z,101565.72
2018-04-07T03:23:14.649Z,101574.69
2018-04-07T03:23:36.715Z,101577.75
2018-04-07T03:23:58.781Z,101570.07
2018-04-07T03:24:20.837Z,101572.10
2018-04-07T03:24:42.895Z,101572.84
2018-04-07T03:25:04.993Z,101568.49
2018-04-07T03:25:27.052Z,101570.25
2018-04-07T03:25:49.116Z,101568.59
2018-04-07T03:26:11.184Z,101566.45
2018-04-07T03:26:33.259Z,101566.00
2018-04-07T03:26:55.327Z,101565.16
2018-04-07T03:27:17.380Z,101562.58
2018-04-07T03:27:39.448Z,101565.63
2018-04-07T03:28:03.014Z,101564.61
2018-04-07T03:28:25.129Z,101564.70
2018-04-07T03:28:47.356Z,101566.83
2018-04-07T03:29:10.281Z,101566.83
2018-04-07T03:29:32.340Z,101562.48
2018-04-07T03:29:54.383Z,101564.61
2018-04-07T03:30:16.451Z,101568.49
2018-04-07T03:30:39.299Z,101561.55
2018-04-07T03:31:02.132Z,101563.78
2018-04-07T03:31:24.967Z,101563.78
2018-04-07T03:31:47.757Z,101562.39
2018-04-07T03:32:09.817Z,101561.55
2018-04-07T03:32:32.649Z,101559.80
2018-04-07T03:32:55.473Z,101554.25
2018-04-07T03:33:17.533Z,101556.84
2018-04-07T03:33:39.616Z,101554.72
2018-04-07T03:34:01.656Z,101557.86
2018-04-07T03:34:23.708Z,101553.05
2018-04-07T03:34:45.772Z,101556.47
2018-04-07T03:35:08.605Z,101554.90
2018-04-07T03:35:31.425Z,101551.75
2018-04-07T03:35:53.570Z,101550.00
2018-04-07T03:36:16.393Z,101549.35
2018-04-07T03:36:39.210Z,101545.28
2018-04-07T03:37:01.280Z,101550.64
2018-04-07T03:37:23.340Z,101550.19
2018-04-07T03:37:45.393Z,101546.67
2018-04-07T03:38:08.205Z,101548.42
2018-04-07T03:38:30.265Z,101539.17
2018-04-07T03:38:52.336Z,101545.65
2018-04-07T03:39:14.397Z,101544.45
2018-04-07T03:39:36.461Z,101544.72
2018-04-07T03:39:58.518Z,101546.11
2018-04-07T03:40:21.342Z,101542.59
2018-04-07T03:40:44.147Z,101536.03
2018-04-07T03:41:06.211Z,101539.17
2018-04-07T03:41:28.270Z,101539.08
2018-04-07T03:41:50.317Z,101542.13
2018-04-07T03:42:12.369Z,101542.59
2018-04-07T03:42:34.429Z,101540.75
2018-04-07T03:42:56.491Z,101541.30
2018-04-07T03:43:18.553Z,101538.16
2018-04-07T03:43:40.654Z,101544.72
2018-04-07T03:44:02.738Z,101543.52
2018-04-07T03:44:25.619Z,101546.95
2018-04-07T03:44:47.678Z,101546.67
2018-04-07T03:45:10.515Z,101544.45
2018-04-07T03:45:33.343Z,101540.56
2018-04-07T03:45:55.402Z,101541.95
2018-04-07T03:46:17.457Z,101539.45
2018-04-07T03:46:39.504Z,101539.83
2018-04-07T03:47:02.341Z,101546.02
2018-04-07T03:47:24.349Z,101541.48
2018-04-07T03:47:46.428Z,101543.16
2018-04-07T03:48:08.478Z,101540.56
2018-04-07T03:48:30.539Z,101538.80
2018-04-07T03:48:52.691Z,101543.25
2018-04-07T03:49:14.791Z,101540.19
2018-04-07T03:49:36.842Z,101539.27
2018-04-07T03:49:58.914Z,101546.67
2018-04-07T03:50:20.980Z,101535.38
2018-04-07T03:50:43.101Z,101540.29
2018-04-07T03:51:05.147Z,101542.23
2018-04-07T03:51:27.977Z,101543.16
2018-04-07T03:51:50.805Z,101535.75
2018-04-07T03:52:13.723Z,101543.61
2018-04-07T03:52:35.785Z,101543.70
2018-04-07T03:52:57.842Z,101541.48
2018-04-07T03:53:19.904Z,101544.17
2018-04-07T03:53:42.748Z,101545.84
2018-04-07T03:54:04.922Z,101541.67
2018-04-07T03:54:27.009Z,101541.67
2018-04-07T03:54:49.062Z,101547.22
2018-04-07T03:55:11.134Z,101543.70
2018-04-07T03:55:33.199Z,101543.80
2018-04-07T03:55:55.286Z,101550.27
2018-04-07T03:56:17.350Z,101550.27
2018-04-07T03:56:40.190Z,101551.66
2018-04-07T03:57:03.081Z,101546.77
2018-04-07T03:57:25.139Z,101540.56
2018-04-07T03:57:47.964Z,101539.55
2018-04-07T03:58:10.004Z,101545.46
2018-04-07T03:58:32.823Z,101542.50
2018-04-07T03:58:54.871Z,101545.55
2018-04-07T03:59:17.006Z,101541.12
2018-04-07T03:59:39.115Z,101536.40
2018-04-07T04:00:01.179Z,101536.03
2018-04-07T04:00:23.342Z,101539.55
2018-04-07T04:00:45.426Z,101541.86
2018-04-07T04:01:07.477Z,101537.42
2018-04-07T04:01:29.587Z,101542.59
2018-04-07T04:01:51.648Z,101539.55
2018-04-07T04:02:13.700Z,101539.55
2018-04-07T04:02:35.786Z,101536.22
2018-04-07T04:02:57.844Z,101535.38
2018-04-07T04:03:20.673Z,101537.52
2018-04-07T04:03:43.497Z,101531.03
2018-04-07T04:04:06.341Z,101536.22
2018-04-07T04:04:28.394Z,101532.80
2018-04-07T04:04:50.502Z,101533.16
2018-04-07T04:05:12.551Z,101533.62
2018-04-07T04:05:34.609Z,101532.33
2018-04-07T04:05:56.676Z,101528.81
2018-04-07T04:06:18.748Z,101531.77
2018-04-07T04:06:41.581Z,101528.26
2018-04-07T04:07:03.632Z,101526.59
2018-04-07T04:07:25.697Z,101525.67
2018-04-07T04:07:47.762Z,101530.95
2018-04-07T04:08:09.822Z,101529.19
2018-04-07T04:08:31.877Z,101534.46
2018-04-07T04:08:54.706Z,101531.31
2018-04-07T04:09:17.534Z,101527.89
2018-04-07T04:09:39.593Z,101528.81
2018-04-07T04:10:01.706Z,101527.52
2018-04-07T04:10:23.773Z,101527.98
2018-04-07T04:10:45.829Z,101527.25
2018-04-07T04:11:07.893Z,101531.31
2018-04-07T04:11:30.722Z,101528.45
2018-04-07T04:11:52.858Z,101534.55
2018-04-07T04:12:14.908Z,101527.98
2018-04-07T04:12:37.748Z,101524.00
2018-04-07T04:13:00.570Z,101529.19
2018-04-07T04:13:23.398Z,101531.87
2018-04-07T04:13:45.461Z,101531.03
2018-04-07T04:14:07.585Z,101527.15
2018-04-07T04:14:29.652Z,101530.11
2018-04-07T04:14:51.702Z,101527.61
2018-04-07T04:15:13.798Z,101526.69
2018-04-07T04:15:36.635Z,101526.23
2018-04-07T04:15:59.460Z,101525.77
2018-04-07T04:16:21.517Z,101520.22
2018-04-07T04:16:43.579Z,101527.15
2018-04-07T04:17:05.646Z,101519.84
2018-04-07T04:17:27.712Z,101516.80
2018-04-07T04:17:49.769Z,101518.45
2018-04-07T04:18:11.858Z,101522.62
2018-04-07T04:18:33.943Z,101517.63
2018-04-07T04:18:56.006Z,101520.67
2018-04-07T04:19:18.086Z,101516.33
2018-04-07T04:19:40.162Z,101514.94
2018-04-07T04:20:02.226Z,101513.19
2018-04-07T04:20:24.318Z,101508.37
2018-04-07T04:20:46.381Z,101508.75
2018-04-07T04:21:08.438Z,101513.37
2018-04-07T04:21:30.500Z,101514.85
2018-04-07T04:21:52.555Z,101507.82
2018-04-07T04:22:15.383Z,101512.63
2018-04-07T04:22:38.206Z,101505.33
2018-04-07T04:23:00.273Z,101510.04
2018-04-07T04:23:22.382Z,101510.50
2018-04-07T04:23:45.177Z,101501.44
2018-04-07T04:24:07.321Z,101501.81
2018-04-07T04:24:29.390Z,101497.55
2018-04-07T04:24:51.433Z,101504.59
2018-04-07T04:25:13.527Z,101499.96
2018-04-07T04:25:35.624Z,101495.61
2018-04-07T04:25:57.679Z,101501.16
2018-04-07T04:26:19.737Z,101500.61
2018-04-07T04:26:41.822Z,101503.20
2018-04-07T04:27:04.656Z,101497.92
2018-04-07T04:27:27.476Z,101495.33
2018-04-07T04:27:49.649Z,101498.84
2018-04-07T04:28:11.700Z,101494.97
2018-04-07T04:28:33.748Z,101495.33
2018-04-07T04:28:56.561Z,101495.06
2018-04-07T04:29:18.612Z,101495.16
2018-04-07T04:29:40.671Z,101494.69
2018-04-07T04:30:02.770Z,101489.14
2018-04-07T04:30:24.812Z,101483.12
2018-04-07T04:30:46.897Z,101483.50
2018-04-07T04:31:08.967Z,101484.70
2018-04-07T04:31:31.058Z,101489.97
2018-04-07T04:31:53.145Z,101488.13
2018-04-07T04:32:15.201Z,101488.13
2018-04-07T04:32:37.378Z,101485.53
2018-04-07T04:32:59.446Z,101477.95
2018-04-07T04:33:21.525Z,101484.61
2018-04-07T04:33:43.767Z,101482.84
2018-04-07T04:34:05.828Z,101475.91
2018-04-07T04:34:28.682Z,101479.34
2018-04-07T04:34:50.743Z,101482.66
2018-04-07T04:35:13.007Z,101484.88
2018-04-07T04:35:35.833Z,101477.48
2018-04-07T04:35:57.917Z,101478.31
2018-04-07T04:36:20.732Z,101479.80
2018-04-07T04:36:42.787Z,101481.00
2018-04-07T04:37:04.844Z,101478.41
2018-04-07T04:37:27.660Z,101481.09
2018-04-07T04:37:49.721Z,101475.45
2018-04-07T04:38:11.774Z,101476.84
2018-04-07T04:38:33.834Z,101477.77
2018-04-07T04:38:55.905Z,101475.64
2018-04-07T04:39:17.973Z,101476.93
2018-04-07T04:39:40.066Z,101479.16
2018-04-07T04:40:02.127Z,101481.28
2018-04-07T04:40:24.181Z,101473.51
2018-04-07T04:40:46.243Z,101480.72
2018-04-07T04:41:08.324Z,101476.84
2018-04-07T04:41:30.378Z,101476.84
2018-04-07T04:41:52.434Z,101472.86
2018-04-07T04:42:14.480Z,101472.86
2018-04-07T04:42:36.561Z,101469.44
2018-04-07T04:42:58.610Z,101470.73
2018-04-07T04:43:20.669Z,101466.58
2018-04-07T04:43:42.711Z,101466.11
2018-04-07T04:44:04.879Z,101465.38
2018-04-07T04:44:27.711Z,101458.71
2018-04-07T04:44:50.538Z,101457.33
2018-04-07T04:45:12.600Z,101463.43
2018-04-07T04:45:34.654Z,101456.12
2018-04-07T04:45:56.739Z,101457.97
2018-04-07T04:46:18.801Z,101460.94
2018-04-07T04:46:41.016Z,101463.98
2018-04-07T04:47:03.074Z,101459.27
2018-04-07T04:47:25.143Z,101455.56
2018-04-07T04:47:47.964Z,101455.20
2018-04-07T04:48:10.018Z,101456.67
2018-04-07T04:48:32.085Z,101453.34
2018-04-07T04:48:54.176Z,101451.69
2018-04-07T04:49:16.258Z,101453.26
2018-04-07T04:49:38.318Z,101451.50
2018-04-07T04:50:00.383Z,101452.33
2018-04-07T04:50:22.458Z,101455.75
2018-04-07T04:50:44.514Z,101454.18
2018-04-07T04:51:06.577Z,101459.27
2018-04-07T04:51:28.666Z,101454.09
2018-04-07T04:51:50.773Z,101458.06
2018-04-07T04:52:12.830Z,101455.94
2018-04-07T04:52:35.655Z,101459.82
2018-04-07T04:52:58.490Z,101454.45
2018-04-07T04:53:21.313Z,101459.91
2018-04-07T04:53:43.380Z,101459.17
2018-04-07T04:54:05.438Z,101462.69
2018-04-07T04:54:27.508Z,101457.60
2018-04-07T04:54:49.570Z,101462.59
2018-04-07T04:55:11.626Z,101460.00
2018-04-07T04:55:33.686Z,101454.37
2018-04-07T04:55:55.744Z,101456.22
2018-04-07T04:56:18.574Z,101458.44
2018-04-07T04:56:40.676Z,101457.14
2018-04-07T04:57:02.738Z,101456.31
2018-04-07T04:57:24.815Z,101459.73
2018-04-07T04:57:46.865Z,101460.47